sensor_id;sensor_type;location;lat;lon;timestamp;P1;durP1;ratioP1;P2;durP2;ratioP2
51724;SDS011;37801;53.224;6.552;2022-11-11T00:00:57;11.88;;;5.53;;
51724;SDS011;37801;53.224;6.552;2022-11-11T00:03:35;13.10;;;5.45;;
51724;SDS011;37801;53.224;6.552;2022-11-11T00:06:01;11.05;;;5.50;;
51724;SDS011;37801;53.224;6.552;2022-11-11T00:08:28;11.10;;;6.18;;
51724;SDS011;37801;53.224;6.552;2022-11-11T00:11:05;10.57;;;6.03;;
51724;SDS011;37801;53.224;6.552;2022-11-11T00:13:36;17.23;;;6.40;;
51724;SDS011;37801;53.224;6.552;2022-11-11T00:16:06;12.35;;;6.03;;
51724;SDS011;37801;53.224;6.552;2022-11-11T00:18:34;13.55;;;5.80;;
51724;SDS011;37801;53.224;6.552;2022-11-11T00:21:18;10.98;;;6.03;;
51724;SDS011;37801;53.224;6.552;2022-11-11T00:24:04;11.30;;;5.93;;
51724;SDS011;37801;53.224;6.552;2022-11-11T00:26:53;12.93;;;6.05;;
51724;SDS011;37801;53.224;6.552;2022-11-11T00:29:18;10.88;;;6.32;;
51724;SDS011;37801;53.224;6.552;2022-11-11T00:31:45;11.48;;;6.45;;
51724;SDS011;37801;53.224;6.552;2022-11-11T00:34:29;10.73;;;6.00;;
51724;SDS011;37801;53.224;6.552;2022-11-11T00:36:54;12.65;;;6.47;;
51724;SDS011;37801;53.224;6.552;2022-11-11T00:39:20;15.77;;;6.85;;
51724;SDS011;37801;53.224;6.552;2022-11-11T00:41:46;11.40;;;6.53;;
51724;SDS011;37801;53.224;6.552;2022-11-11T00:44:11;14.30;;;6.70;;
51724;SDS011;37801;53.224;6.552;2022-11-11T00:46:37;13.85;;;7.18;;
51724;SDS011;37801;53.224;6.552;2022-11-11T00:49:21;11.73;;;6.72;;
51724;SDS011;37801;53.224;6.552;2022-11-11T00:52:05;16.50;;;7.18;;
51724;SDS011;37801;53.224;6.552;2022-11-11T00:54:31;16.52;;;7.07;;
51724;SDS011;37801;53.224;6.552;2022-11-11T00:56:57;13.20;;;6.47;;
51724;SDS011;37801;53.224;6.552;2022-11-11T00:59:22;13.07;;;7.45;;
51724;SDS011;37801;53.224;6.552;2022-11-11T01:01:48;11.25;;;6.38;;
51724;SDS011;37801;53.224;6.552;2022-11-11T01:04:13;14.93;;;6.93;;
51724;SDS011;37801;53.224;6.552;2022-11-11T01:06:39;11.43;;;6.15;;
51724;SDS011;37801;53.224;6.552;2022-11-11T01:09:05;14.45;;;6.07;;
51724;SDS011;37801;53.224;6.552;2022-11-11T01:11:31;13.95;;;6.75;;
51724;SDS011;37801;53.224;6.552;2022-11-11T01:13:57;12.73;;;7.03;;
51724;SDS011;37801;53.224;6.552;2022-11-11T01:16:24;13.13;;;6.85;;
51724;SDS011;37801;53.224;6.552;2022-11-11T01:18:51;13.55;;;7.03;;
51724;SDS011;37801;53.224;6.552;2022-11-11T01:21:21;12.80;;;6.57;;
51724;SDS011;37801;53.224;6.552;2022-11-11T01:23:49;14.15;;;7.38;;
51724;SDS011;37801;53.224;6.552;2022-11-11T01:26:26;14.98;;;6.88;;
51724;SDS011;37801;53.224;6.552;2022-11-11T01:28:53;15.20;;;7.40;;
51724;SDS011;37801;53.224;6.552;2022-11-11T01:31:21;14.73;;;7.28;;
51724;SDS011;37801;53.224;6.552;2022-11-11T01:33:48;13.32;;;7.00;;
51724;SDS011;37801;53.224;6.552;2022-11-11T01:36:14;14.73;;;7.18;;
51724;SDS011;37801;53.224;6.552;2022-11-11T01:38:42;12.55;;;6.70;;
51724;SDS011;37801;53.224;6.552;2022-11-11T01:41:10;12.65;;;7.22;;
51724;SDS011;37801;53.224;6.552;2022-11-11T01:43:56;14.10;;;6.95;;
51724;SDS011;37801;53.224;6.552;2022-11-11T01:46:35;12.55;;;6.95;;
51724;SDS011;37801;53.224;6.552;2022-11-11T01:52:13;13.20;;;7.07;;
51724;SDS011;37801;53.224;6.552;2022-11-11T01:57:48;12.77;;;6.78;;
51724;SDS011;37801;53.224;6.552;2022-11-11T02:00:29;15.77;;;7.00;;
51724;SDS011;37801;53.224;6.552;2022-11-11T02:02:56;13.65;;;7.05;;
51724;SDS011;37801;53.224;6.552;2022-11-11T02:05:25;13.45;;;7.38;;
51724;SDS011;37801;53.224;6.552;2022-11-11T02:10:37;15.82;;;7.85;;
51724;SDS011;37801;53.224;6.552;2022-11-11T02:13:09;13.68;;;7.35;;
51724;SDS011;37801;53.224;6.552;2022-11-11T02:15:56;13.55;;;7.05;;
51724;SDS011;37801;53.224;6.552;2022-11-11T02:18:22;13.45;;;6.68;;
51724;SDS011;37801;53.224;6.552;2022-11-11T02:20:48;12.35;;;6.90;;
51724;SDS011;37801;53.224;6.552;2022-11-11T02:25:46;17.73;;;8.75;;
51724;SDS011;37801;53.224;6.552;2022-11-11T02:28:14;15.00;;;7.82;;
51724;SDS011;37801;53.224;6.552;2022-11-11T02:30:42;13.05;;;7.50;;
51724;SDS011;37801;53.224;6.552;2022-11-11T02:33:07;15.13;;;8.38;;
51724;SDS011;37801;53.224;6.552;2022-11-11T02:35:34;18.38;;;7.65;;
51724;SDS011;37801;53.224;6.552;2022-11-11T02:38:03;16.80;;;7.93;;
51724;SDS011;37801;53.224;6.552;2022-11-11T02:43:23;17.75;;;8.07;;
51724;SDS011;37801;53.224;6.552;2022-11-11T02:45:49;15.90;;;8.50;;
51724;SDS011;37801;53.224;6.552;2022-11-11T02:48:15;14.80;;;8.02;;
51724;SDS011;37801;53.224;6.552;2022-11-11T02:50:41;15.25;;;8.75;;
51724;SDS011;37801;53.224;6.552;2022-11-11T02:53:06;13.02;;;8.32;;
51724;SDS011;37801;53.224;6.552;2022-11-11T02:55:32;16.20;;;9.15;;
51724;SDS011;37801;53.224;6.552;2022-11-11T02:57:58;16.65;;;9.52;;
51724;SDS011;37801;53.224;6.552;2022-11-11T03:00:25;21.33;;;9.38;;
51724;SDS011;37801;53.224;6.552;2022-11-11T03:02:50;16.70;;;9.23;;
51724;SDS011;37801;53.224;6.552;2022-11-11T03:05:16;18.38;;;10.48;;
51724;SDS011;37801;53.224;6.552;2022-11-11T03:07:42;14.23;;;9.27;;
51724;SDS011;37801;53.224;6.552;2022-11-11T03:10:07;14.68;;;9.70;;
51724;SDS011;37801;53.224;6.552;2022-11-11T03:12:33;18.77;;;11.13;;
51724;SDS011;37801;53.224;6.552;2022-11-11T03:14:59;15.68;;;10.35;;
51724;SDS011;37801;53.224;6.552;2022-11-11T03:17:24;15.02;;;10.68;;
51724;SDS011;37801;53.224;6.552;2022-11-11T03:20:13;15.57;;;10.90;;
51724;SDS011;37801;53.224;6.552;2022-11-11T03:23:05;16.58;;;10.93;;
51724;SDS011;37801;53.224;6.552;2022-11-11T03:25:38;19.00;;;11.50;;
51724;SDS011;37801;53.224;6.552;2022-11-11T03:28:08;20.33;;;12.35;;
51724;SDS011;37801;53.224;6.552;2022-11-11T03:30:40;18.02;;;12.40;;
51724;SDS011;37801;53.224;6.552;2022-11-11T03:33:07;21.75;;;12.48;;
51724;SDS011;37801;53.224;6.552;2022-11-11T03:35:34;20.10;;;12.48;;
51724;SDS011;37801;53.224;6.552;2022-11-11T03:38:00;19.38;;;12.52;;
51724;SDS011;37801;53.224;6.552;2022-11-11T03:40:45;19.13;;;13.80;;
51724;SDS011;37801;53.224;6.552;2022-11-11T03:43:12;21.02;;;12.90;;
51724;SDS011;37801;53.224;6.552;2022-11-11T03:45:39;20.73;;;12.38;;
51724;SDS011;37801;53.224;6.552;2022-11-11T03:48:05;17.50;;;12.93;;
51724;SDS011;37801;53.224;6.552;2022-11-11T03:50:31;21.38;;;13.48;;
51724;SDS011;37801;53.224;6.552;2022-11-11T03:52:57;20.73;;;13.35;;
51724;SDS011;37801;53.224;6.552;2022-11-11T03:55:23;20.95;;;12.98;;
51724;SDS011;37801;53.224;6.552;2022-11-11T03:57:48;19.00;;;13.10;;
51724;SDS011;37801;53.224;6.552;2022-11-11T04:00:15;24.55;;;14.13;;
51724;SDS011;37801;53.224;6.552;2022-11-11T04:02:44;21.27;;;14.90;;
51724;SDS011;37801;53.224;6.552;2022-11-11T04:05:29;23.98;;;14.82;;
51724;SDS011;37801;53.224;6.552;2022-11-11T04:08:14;19.83;;;13.18;;
51724;SDS011;37801;53.224;6.552;2022-11-11T04:11:02;22.55;;;14.13;;
51724;SDS011;37801;53.224;6.552;2022-11-11T04:13:38;26.10;;;14.98;;
51724;SDS011;37801;53.224;6.552;2022-11-11T04:16:24;19.98;;;13.77;;
51724;SDS011;37801;53.224;6.552;2022-11-11T04:18:50;21.80;;;14.23;;
51724;SDS011;37801;53.224;6.552;2022-11-11T04:21:35;22.65;;;15.15;;
51724;SDS011;37801;53.224;6.552;2022-11-11T04:26:56;22.52;;;13.82;;
51724;SDS011;37801;53.224;6.552;2022-11-11T04:29:23;22.90;;;14.75;;
51724;SDS011;37801;53.224;6.552;2022-11-11T04:31:56;21.35;;;14.82;;
51724;SDS011;37801;53.224;6.552;2022-11-11T04:34:43;21.10;;;13.27;;
51724;SDS011;37801;53.224;6.552;2022-11-11T04:37:19;21.95;;;14.70;;
51724;SDS011;37801;53.224;6.552;2022-11-11T04:39:47;21.60;;;14.98;;
51724;SDS011;37801;53.224;6.552;2022-11-11T04:42:31;20.85;;;14.88;;
51724;SDS011;37801;53.224;6.552;2022-11-11T04:44:59;22.98;;;15.38;;
51724;SDS011;37801;53.224;6.552;2022-11-11T04:48:00;20.02;;;14.43;;
51724;SDS011;37801;53.224;6.552;2022-11-11T04:50:27;24.05;;;15.45;;
51724;SDS011;37801;53.224;6.552;2022-11-11T04:52:59;23.33;;;14.88;;
51724;SDS011;37801;53.224;6.552;2022-11-11T04:55:26;24.10;;;15.82;;
51724;SDS011;37801;53.224;6.552;2022-11-11T04:58:11;24.27;;;15.10;;
51724;SDS011;37801;53.224;6.552;2022-11-11T05:00:38;22.60;;;15.63;;
51724;SDS011;37801;53.224;6.552;2022-11-11T05:03:04;25.30;;;16.30;;
51724;SDS011;37801;53.224;6.552;2022-11-11T05:06:02;25.67;;;16.25;;
51724;SDS011;37801;53.224;6.552;2022-11-11T05:08:47;24.50;;;16.77;;
51724;SDS011;37801;53.224;6.552;2022-11-11T05:11:21;24.65;;;16.45;;
51724;SDS011;37801;53.224;6.552;2022-11-11T05:13:49;23.90;;;17.38;;
51724;SDS011;37801;53.224;6.552;2022-11-11T05:16:39;25.92;;;17.52;;
51724;SDS011;37801;53.224;6.552;2022-11-11T05:22:18;24.83;;;17.52;;
51724;SDS011;37801;53.224;6.552;2022-11-11T05:24:45;27.85;;;17.02;;
51724;SDS011;37801;53.224;6.552;2022-11-11T05:27:34;27.63;;;18.27;;
51724;SDS011;37801;53.224;6.552;2022-11-11T05:29:59;24.98;;;17.90;;
51724;SDS011;37801;53.224;6.552;2022-11-11T05:32:26;25.35;;;18.00;;
51724;SDS011;37801;53.224;6.552;2022-11-11T05:34:51;23.92;;;17.13;;
51724;SDS011;37801;53.224;6.552;2022-11-11T05:37:18;24.83;;;17.30;;
51724;SDS011;37801;53.224;6.552;2022-11-11T05:39:44;25.88;;;18.17;;
51724;SDS011;37801;53.224;6.552;2022-11-11T05:42:10;27.00;;;17.33;;
51724;SDS011;37801;53.224;6.552;2022-11-11T05:44:36;26.27;;;17.00;;
51724;SDS011;37801;53.224;6.552;2022-11-11T05:47:02;22.95;;;16.40;;
51724;SDS011;37801;53.224;6.552;2022-11-11T05:49:28;28.88;;;17.15;;
51724;SDS011;37801;53.224;6.552;2022-11-11T05:51:54;29.40;;;17.33;;
51724;SDS011;37801;53.224;6.552;2022-11-11T05:54:20;24.15;;;17.17;;
51724;SDS011;37801;53.224;6.552;2022-11-11T05:56:47;24.83;;;17.67;;
51724;SDS011;37801;53.224;6.552;2022-11-11T05:59:12;25.77;;;17.08;;
51724;SDS011;37801;53.224;6.552;2022-11-11T06:01:38;26.20;;;17.90;;
51724;SDS011;37801;53.224;6.552;2022-11-11T06:04:04;26.70;;;16.30;;
51724;SDS011;37801;53.224;6.552;2022-11-11T06:06:31;25.15;;;18.00;;
51724;SDS011;37801;53.224;6.552;2022-11-11T06:08:57;24.98;;;17.08;;
51724;SDS011;37801;53.224;6.552;2022-11-11T06:11:23;25.88;;;16.52;;
51724;SDS011;37801;53.224;6.552;2022-11-11T06:13:49;26.92;;;16.83;;
51724;SDS011;37801;53.224;6.552;2022-11-11T06:16:15;23.92;;;15.93;;
51724;SDS011;37801;53.224;6.552;2022-11-11T06:18:41;26.67;;;16.83;;
51724;SDS011;37801;53.224;6.552;2022-11-11T06:21:07;22.77;;;15.82;;
51724;SDS011;37801;53.224;6.552;2022-11-11T06:23:33;25.15;;;16.33;;
51724;SDS011;37801;53.224;6.552;2022-11-11T06:25:59;24.15;;;16.00;;
51724;SDS011;37801;53.224;6.552;2022-11-11T06:28:47;21.92;;;15.52;;
51724;SDS011;37801;53.224;6.552;2022-11-11T06:31:15;25.98;;;15.63;;
51724;SDS011;37801;53.224;6.552;2022-11-11T06:33:42;25.15;;;15.13;;
51724;SDS011;37801;53.224;6.552;2022-11-11T06:36:09;25.23;;;15.13;;
51724;SDS011;37801;53.224;6.552;2022-11-11T06:38:38;23.83;;;15.50;;
51724;SDS011;37801;53.224;6.552;2022-11-11T06:41:07;24.23;;;16.38;;
51724;SDS011;37801;53.224;6.552;2022-11-11T06:43:34;23.48;;;16.02;;
51724;SDS011;37801;53.224;6.552;2022-11-11T06:46:00;30.92;;;17.23;;
51724;SDS011;37801;53.224;6.552;2022-11-11T06:48:26;27.40;;;16.55;;
51724;SDS011;37801;53.224;6.552;2022-11-11T06:50:53;25.30;;;18.05;;
51724;SDS011;37801;53.224;6.552;2022-11-11T06:53:20;27.80;;;16.42;;
51724;SDS011;37801;53.224;6.552;2022-11-11T06:55:47;27.15;;;18.10;;
51724;SDS011;37801;53.224;6.552;2022-11-11T06:58:16;27.20;;;17.13;;
51724;SDS011;37801;53.224;6.552;2022-11-11T07:00:44;25.27;;;17.48;;
51724;SDS011;37801;53.224;6.552;2022-11-11T07:03:12;25.83;;;17.70;;
51724;SDS011;37801;53.224;6.552;2022-11-11T07:05:40;26.33;;;18.55;;
51724;SDS011;37801;53.224;6.552;2022-11-11T07:08:10;22.95;;;17.55;;
51724;SDS011;37801;53.224;6.552;2022-11-11T07:10:38;24.88;;;17.80;;
51724;SDS011;37801;53.224;6.552;2022-11-11T07:13:07;29.75;;;19.13;;
51724;SDS011;37801;53.224;6.552;2022-11-11T07:15:34;31.98;;;18.02;;
51724;SDS011;37801;53.224;6.552;2022-11-11T07:18:00;26.50;;;18.42;;
51724;SDS011;37801;53.224;6.552;2022-11-11T07:20:26;27.50;;;18.58;;
51724;SDS011;37801;53.224;6.552;2022-11-11T07:22:52;30.25;;;18.08;;
51724;SDS011;37801;53.224;6.552;2022-11-11T07:25:18;23.92;;;17.40;;
51724;SDS011;37801;53.224;6.552;2022-11-11T07:27:43;24.05;;;17.92;;
51724;SDS011;37801;53.224;6.552;2022-11-11T07:30:09;26.38;;;18.05;;
51724;SDS011;37801;53.224;6.552;2022-11-11T07:32:36;23.95;;;17.42;;
51724;SDS011;37801;53.224;6.552;2022-11-11T07:35:09;31.75;;;19.00;;
51724;SDS011;37801;53.224;6.552;2022-11-11T07:37:35;30.08;;;18.77;;
51724;SDS011;37801;53.224;6.552;2022-11-11T07:40:01;29.58;;;18.42;;
51724;SDS011;37801;53.224;6.552;2022-11-11T07:42:27;29.30;;;18.52;;
51724;SDS011;37801;53.224;6.552;2022-11-11T07:44:53;31.17;;;18.63;;
51724;SDS011;37801;53.224;6.552;2022-11-11T07:47:18;26.85;;;17.90;;
51724;SDS011;37801;53.224;6.552;2022-11-11T07:49:44;26.42;;;16.52;;
51724;SDS011;37801;53.224;6.552;2022-11-11T07:52:10;23.70;;;17.13;;
51724;SDS011;37801;53.224;6.552;2022-11-11T07:54:35;30.08;;;19.05;;
51724;SDS011;37801;53.224;6.552;2022-11-11T07:57:01;23.08;;;17.00;;
51724;SDS011;37801;53.224;6.552;2022-11-11T07:59:27;30.95;;;18.25;;
51724;SDS011;37801;53.224;6.552;2022-11-11T08:01:53;27.08;;;18.40;;
51724;SDS011;37801;53.224;6.552;2022-11-11T08:04:18;25.52;;;17.65;;
51724;SDS011;37801;53.224;6.552;2022-11-11T08:06:44;23.80;;;16.55;;
51724;SDS011;37801;53.224;6.552;2022-11-11T08:09:10;27.77;;;18.00;;
51724;SDS011;37801;53.224;6.552;2022-11-11T08:11:35;24.60;;;16.52;;
51724;SDS011;37801;53.224;6.552;2022-11-11T08:14:19;22.67;;;16.73;;
51724;SDS011;37801;53.224;6.552;2022-11-11T08:16:45;24.95;;;17.30;;
51724;SDS011;37801;53.224;6.552;2022-11-11T08:19:11;25.73;;;18.48;;
51724;SDS011;37801;53.224;6.552;2022-11-11T08:21:36;26.98;;;18.00;;
51724;SDS011;37801;53.224;6.552;2022-11-11T08:24:02;24.38;;;16.95;;
51724;SDS011;37801;53.224;6.552;2022-11-11T08:26:29;28.23;;;18.00;;
51724;SDS011;37801;53.224;6.552;2022-11-11T08:28:55;27.52;;;18.15;;
51724;SDS011;37801;53.224;6.552;2022-11-11T08:31:21;29.58;;;18.65;;
51724;SDS011;37801;53.224;6.552;2022-11-11T08:33:47;30.20;;;18.67;;
51724;SDS011;37801;53.224;6.552;2022-11-11T08:36:12;26.52;;;17.90;;
51724;SDS011;37801;53.224;6.552;2022-11-11T08:38:38;26.77;;;16.90;;
51724;SDS011;37801;53.224;6.552;2022-11-11T08:41:05;30.02;;;17.30;;
51724;SDS011;37801;53.224;6.552;2022-11-11T08:43:31;28.52;;;17.05;;
51724;SDS011;37801;53.224;6.552;2022-11-11T08:45:58;27.77;;;16.70;;
51724;SDS011;37801;53.224;6.552;2022-11-11T08:48:24;26.13;;;16.48;;
51724;SDS011;37801;53.224;6.552;2022-11-11T08:50:51;25.38;;;15.75;;
51724;SDS011;37801;53.224;6.552;2022-11-11T08:53:18;25.08;;;17.08;;
51724;SDS011;37801;53.224;6.552;2022-11-11T08:55:44;25.55;;;16.17;;
51724;SDS011;37801;53.224;6.552;2022-11-11T08:58:10;25.77;;;17.50;;
51724;SDS011;37801;53.224;6.552;2022-11-11T09:00:36;23.67;;;16.02;;
51724;SDS011;37801;53.224;6.552;2022-11-11T09:03:03;24.35;;;16.45;;
51724;SDS011;37801;53.224;6.552;2022-11-11T09:05:30;26.40;;;16.25;;
51724;SDS011;37801;53.224;6.552;2022-11-11T09:07:59;23.17;;;15.90;;
51724;SDS011;37801;53.224;6.552;2022-11-11T09:10:25;23.50;;;15.98;;
51724;SDS011;37801;53.224;6.552;2022-11-11T09:12:57;28.17;;;17.10;;
51724;SDS011;37801;53.224;6.552;2022-11-11T09:15:24;23.40;;;16.00;;
51724;SDS011;37801;53.224;6.552;2022-11-11T09:17:50;23.02;;;15.88;;
51724;SDS011;37801;53.224;6.552;2022-11-11T09:20:17;22.10;;;16.17;;
51724;SDS011;37801;53.224;6.552;2022-11-11T09:22:43;23.38;;;16.73;;
51724;SDS011;37801;53.224;6.552;2022-11-11T09:25:10;24.13;;;16.75;;
51724;SDS011;37801;53.224;6.552;2022-11-11T09:27:36;27.15;;;16.75;;
51724;SDS011;37801;53.224;6.552;2022-11-11T09:30:02;23.38;;;17.23;;
51724;SDS011;37801;53.224;6.552;2022-11-11T09:32:29;26.20;;;16.30;;
51724;SDS011;37801;53.224;6.552;2022-11-11T09:34:54;22.25;;;16.17;;
51724;SDS011;37801;53.224;6.552;2022-11-11T09:37:20;22.20;;;16.27;;
51724;SDS011;37801;53.224;6.552;2022-11-11T09:39:46;19.85;;;14.13;;
51724;SDS011;37801;53.224;6.552;2022-11-11T09:45:19;21.80;;;15.30;;
51724;SDS011;37801;53.224;6.552;2022-11-11T09:50:24;23.20;;;15.63;;
51724;SDS011;37801;53.224;6.552;2022-11-11T09:52:56;22.55;;;15.02;;
51724;SDS011;37801;53.224;6.552;2022-11-11T09:55:30;23.85;;;15.43;;
51724;SDS011;37801;53.224;6.552;2022-11-11T09:58:07;23.95;;;17.35;;
51724;SDS011;37801;53.224;6.552;2022-11-11T10:00:45;24.08;;;15.90;;
51724;SDS011;37801;53.224;6.552;2022-11-11T10:03:17;21.85;;;14.73;;
51724;SDS011;37801;53.224;6.552;2022-11-11T10:05:45;20.38;;;14.65;;
51724;SDS011;37801;53.224;6.552;2022-11-11T10:08:33;23.60;;;16.13;;
51724;SDS011;37801;53.224;6.552;2022-11-11T10:11:11;23.02;;;16.30;;
51724;SDS011;37801;53.224;6.552;2022-11-11T10:13:49;21.13;;;14.38;;
51724;SDS011;37801;53.224;6.552;2022-11-11T10:19:47;23.48;;;15.50;;
51724;SDS011;37801;53.224;6.552;2022-11-11T10:21:57;25.02;;;15.77;;
51724;SDS011;37801;53.224;6.552;2022-11-11T10:24:31;20.67;;;14.30;;
51724;SDS011;37801;53.224;6.552;2022-11-11T10:27:00;20.75;;;14.90;;
51724;SDS011;37801;53.224;6.552;2022-11-11T10:29:39;22.02;;;15.48;;
51724;SDS011;37801;53.224;6.552;2022-11-11T10:34:49;21.20;;;14.63;;
51724;SDS011;37801;53.224;6.552;2022-11-11T10:37:22;21.83;;;15.20;;
51724;SDS011;37801;53.224;6.552;2022-11-11T10:39:59;22.67;;;15.25;;
51724;SDS011;37801;53.224;6.552;2022-11-11T10:42:36;25.83;;;15.57;;
51724;SDS011;37801;53.224;6.552;2022-11-11T10:45:02;21.75;;;15.20;;
51724;SDS011;37801;53.224;6.552;2022-11-11T10:47:50;23.05;;;14.85;;
51724;SDS011;37801;53.224;6.552;2022-11-11T10:53:16;22.65;;;15.65;;
51724;SDS011;37801;53.224;6.552;2022-11-11T10:55:54;25.25;;;15.35;;
51724;SDS011;37801;53.224;6.552;2022-11-11T10:58:31;22.02;;;14.98;;
51724;SDS011;37801;53.224;6.552;2022-11-11T11:01:03;22.83;;;15.77;;
51724;SDS011;37801;53.224;6.552;2022-11-11T11:03:36;22.38;;;15.00;;
51724;SDS011;37801;53.224;6.552;2022-11-11T11:08:35;21.02;;;14.60;;
51724;SDS011;37801;53.224;6.552;2022-11-11T11:11:09;19.90;;;14.35;;
51724;SDS011;37801;53.224;6.552;2022-11-11T11:13:47;24.17;;;14.68;;
51724;SDS011;37801;53.224;6.552;2022-11-11T11:16:26;20.35;;;13.43;;
51724;SDS011;37801;53.224;6.552;2022-11-11T11:21:48;20.33;;;13.95;;
51724;SDS011;37801;53.224;6.552;2022-11-11T11:24:20;20.05;;;14.52;;
51724;SDS011;37801;53.224;6.552;2022-11-11T11:26:51;20.15;;;14.15;;
51724;SDS011;37801;53.224;6.552;2022-11-11T11:29:25;17.30;;;13.40;;
51724;SDS011;37801;53.224;6.552;2022-11-11T11:34:56;18.67;;;13.55;;
51724;SDS011;37801;53.224;6.552;2022-11-11T11:37:23;18.73;;;14.30;;
51724;SDS011;37801;53.224;6.552;2022-11-11T11:40:04;20.38;;;14.23;;
51724;SDS011;37801;53.224;6.552;2022-11-11T11:42:32;16.42;;;12.75;;
51724;SDS011;37801;53.224;6.552;2022-11-11T11:45:16;21.90;;;14.48;;
51724;SDS011;37801;53.224;6.552;2022-11-11T11:50:39;18.55;;;13.38;;
51724;SDS011;37801;53.224;6.552;2022-11-11T11:56:06;19.38;;;13.50;;
51724;SDS011;37801;53.224;6.552;2022-11-11T11:58:52;18.80;;;13.27;;
51724;SDS011;37801;53.224;6.552;2022-11-11T12:01:28;20.30;;;14.38;;
51724;SDS011;37801;53.224;6.552;2022-11-11T12:12:40;18.10;;;13.00;;
51724;SDS011;37801;53.224;6.552;2022-11-11T12:15:17;16.58;;;12.75;;
51724;SDS011;37801;53.224;6.552;2022-11-11T12:26:34;19.58;;;13.38;;
51724;SDS011;37801;53.224;6.552;2022-11-11T12:29:05;21.33;;;13.60;;
51724;SDS011;37801;53.224;6.552;2022-11-11T12:32:40;17.92;;;12.68;;
51724;SDS011;37801;53.224;6.552;2022-11-11T12:40:13;17.02;;;12.63;;
51724;SDS011;37801;53.224;6.552;2022-11-11T12:42:46;16.52;;;12.30;;
51724;SDS011;37801;53.224;6.552;2022-11-11T12:56:10;15.60;;;11.63;;
51724;SDS011;37801;53.224;6.552;2022-11-11T13:17:36;18.17;;;13.90;;
51724;SDS011;37801;53.224;6.552;2022-11-11T13:20:02;19.02;;;13.98;;
51724;SDS011;37801;53.224;6.552;2022-11-11T13:22:52;18.25;;;13.55;;
51724;SDS011;37801;53.224;6.552;2022-11-11T13:25:21;19.08;;;13.45;;
51724;SDS011;37801;53.224;6.552;2022-11-11T13:27:50;19.23;;;13.65;;
51724;SDS011;37801;53.224;6.552;2022-11-11T13:33:14;17.13;;;12.85;;
51724;SDS011;37801;53.224;6.552;2022-11-11T13:35:45;18.85;;;14.05;;
51724;SDS011;37801;53.224;6.552;2022-11-11T13:38:21;21.40;;;13.18;;
51724;SDS011;37801;53.224;6.552;2022-11-11T13:40:53;19.67;;;13.18;;
51724;SDS011;37801;53.224;6.552;2022-11-11T13:46:04;19.73;;;13.48;;
51724;SDS011;37801;53.224;6.552;2022-11-11T13:48:34;20.92;;;15.40;;
51724;SDS011;37801;53.224;6.552;2022-11-11T13:51:18;19.42;;;14.43;;
51724;SDS011;37801;53.224;6.552;2022-11-11T13:54:05;21.95;;;13.90;;
51724;SDS011;37801;53.224;6.552;2022-11-11T13:56:45;19.23;;;13.77;;
51724;SDS011;37801;53.224;6.552;2022-11-11T13:59:32;16.80;;;12.43;;
51724;SDS011;37801;53.224;6.552;2022-11-11T14:02:24;19.25;;;13.63;;
51724;SDS011;37801;53.224;6.552;2022-11-11T14:12:44;25.75;;;16.80;;
51724;SDS011;37801;53.224;6.552;2022-11-11T14:18:01;19.25;;;14.25;;
51724;SDS011;37801;53.224;6.552;2022-11-11T14:25:44;22.25;;;14.65;;
51724;SDS011;37801;53.224;6.552;2022-11-11T14:28:23;20.00;;;13.48;;
51724;SDS011;37801;53.224;6.552;2022-11-11T14:30:53;19.30;;;13.77;;
51724;SDS011;37801;53.224;6.552;2022-11-11T14:36:03;18.27;;;13.32;;
51724;SDS011;37801;53.224;6.552;2022-11-11T14:38:46;18.23;;;12.77;;
51724;SDS011;37801;53.224;6.552;2022-11-11T14:57:23;19.48;;;12.93;;
51724;SDS011;37801;53.224;6.552;2022-11-11T14:59:53;19.42;;;13.05;;
51724;SDS011;37801;53.224;6.552;2022-11-11T15:02:22;20.15;;;14.43;;
51724;SDS011;37801;53.224;6.552;2022-11-11T15:04:51;18.55;;;14.32;;
51724;SDS011;37801;53.224;6.552;2022-11-11T15:10:24;19.67;;;14.10;;
51724;SDS011;37801;53.224;6.552;2022-11-11T15:21:34;21.67;;;13.98;;
51724;SDS011;37801;53.224;6.552;2022-11-11T15:32:32;17.40;;;12.98;;
51724;SDS011;37801;53.224;6.552;2022-11-11T15:37:46;20.98;;;14.30;;
51724;SDS011;37801;53.224;6.552;2022-11-11T15:42:45;16.15;;;12.68;;
51724;SDS011;37801;53.224;6.552;2022-11-11T15:47:48;18.63;;;13.93;;
51724;SDS011;37801;53.224;6.552;2022-11-11T15:50:15;22.15;;;14.18;;
51724;SDS011;37801;53.224;6.552;2022-11-11T15:52:41;24.98;;;17.27;;
51724;SDS011;37801;53.224;6.552;2022-11-11T15:55:20;23.60;;;17.52;;
51724;SDS011;37801;53.224;6.552;2022-11-11T15:57:48;23.77;;;15.35;;
51724;SDS011;37801;53.224;6.552;2022-11-11T16:02:48;19.98;;;14.00;;
51724;SDS011;37801;53.224;6.552;2022-11-11T16:05:23;19.90;;;15.00;;
51724;SDS011;37801;53.224;6.552;2022-11-11T16:07:54;21.38;;;14.70;;
51724;SDS011;37801;53.224;6.552;2022-11-11T16:10:33;21.20;;;13.68;;
51724;SDS011;37801;53.224;6.552;2022-11-11T16:13:02;19.20;;;14.48;;
51724;SDS011;37801;53.224;6.552;2022-11-11T16:21:10;22.15;;;14.88;;
51724;SDS011;37801;53.224;6.552;2022-11-11T16:23:38;20.58;;;14.50;;
51724;SDS011;37801;53.224;6.552;2022-11-11T16:26:06;21.00;;;14.93;;
51724;SDS011;37801;53.224;6.552;2022-11-11T16:28:40;19.60;;;14.68;;
51724;SDS011;37801;53.224;6.552;2022-11-11T16:33:59;21.02;;;14.43;;
51724;SDS011;37801;53.224;6.552;2022-11-11T16:36:31;19.02;;;14.48;;
51724;SDS011;37801;53.224;6.552;2022-11-11T16:39:11;21.60;;;15.80;;
51724;SDS011;37801;53.224;6.552;2022-11-11T16:41:38;23.83;;;16.70;;
51724;SDS011;37801;53.224;6.552;2022-11-11T16:44:21;25.10;;;17.13;;
51724;SDS011;37801;53.224;6.552;2022-11-11T16:46:54;25.63;;;16.25;;
51724;SDS011;37801;53.224;6.552;2022-11-11T16:49:36;23.52;;;15.50;;
51724;SDS011;37801;53.224;6.552;2022-11-11T16:52:10;25.83;;;16.65;;
51724;SDS011;37801;53.224;6.552;2022-11-11T16:54:46;21.77;;;16.38;;
51724;SDS011;37801;53.224;6.552;2022-11-11T16:57:19;22.65;;;17.20;;
51724;SDS011;37801;53.224;6.552;2022-11-11T16:59:50;25.23;;;16.92;;
51724;SDS011;37801;53.224;6.552;2022-11-11T17:02:20;24.27;;;16.60;;
51724;SDS011;37801;53.224;6.552;2022-11-11T17:07:27;24.92;;;17.48;;
51724;SDS011;37801;53.224;6.552;2022-11-11T17:09:53;22.10;;;16.35;;
51724;SDS011;37801;53.224;6.552;2022-11-11T17:12:33;25.10;;;17.17;;
51724;SDS011;37801;53.224;6.552;2022-11-11T17:15:02;24.42;;;17.20;;
51724;SDS011;37801;53.224;6.552;2022-11-11T17:17:33;24.27;;;16.83;;
51724;SDS011;37801;53.224;6.552;2022-11-11T17:20:01;24.83;;;18.15;;
51724;SDS011;37801;53.224;6.552;2022-11-11T17:22:35;26.48;;;17.75;;
51724;SDS011;37801;53.224;6.552;2022-11-11T17:25:01;27.83;;;17.17;;
51724;SDS011;37801;53.224;6.552;2022-11-11T17:27:28;27.10;;;18.10;;
51724;SDS011;37801;53.224;6.552;2022-11-11T17:29:55;24.58;;;17.10;;
51724;SDS011;37801;53.224;6.552;2022-11-11T17:32:21;26.45;;;17.70;;
51724;SDS011;37801;53.224;6.552;2022-11-11T17:34:46;31.17;;;18.42;;
51724;SDS011;37801;53.224;6.552;2022-11-11T17:37:12;27.25;;;18.52;;
51724;SDS011;37801;53.224;6.552;2022-11-11T17:39:38;27.40;;;18.15;;
51724;SDS011;37801;53.224;6.552;2022-11-11T17:42:07;26.80;;;18.67;;
51724;SDS011;37801;53.224;6.552;2022-11-11T17:44:33;28.77;;;18.77;;
51724;SDS011;37801;53.224;6.552;2022-11-11T17:46:58;24.27;;;17.45;;